sensor_id;sensor_type;location;lat;lon;timestamp;temperature;humidity
16744;DHT22;71724;-33.900;151.182;2023-10-08T00:01:18;19.00;55.20
16744;DHT22;71724;-33.900;151.182;2023-10-08T00:03:47;19.10;54.70
16744;DHT22;71724;-33.900;151.182;2023-10-08T00:06:20;19.20;53.90
16744;DHT22;71724;-33.900;151.182;2023-10-08T00:08:49;19.30;52.50
16744;DHT22;71724;-33.900;151.182;2023-10-08T00:11:17;19.30;52.90
16744;DHT22;71724;-33.900;151.182;2023-10-08T00:13:45;19.30;52.20
16744;DHT22;71724;-33.900;151.182;2023-10-08T00:16:14;19.40;52.90
16744;DHT22;71724;-33.900;151.182;2023-10-08T00:18:44;19.60;52.70
16744;DHT22;71724;-33.900;151.182;2023-10-08T00:21:18;19.70;52.00
16744;DHT22;71724;-33.900;151.182;2023-10-08T00:23:52;19.70;51.40
16744;DHT22;71724;-33.900;151.182;2023-10-08T00:26:27;19.80;52.00
16744;DHT22;71724;-33.900;151.182;2023-10-08T00:31:27;19.90;51.60
16744;DHT22;71724;-33.900;151.182;2023-10-08T00:34:08;20.00;51.90
16744;DHT22;71724;-33.900;151.182;2023-10-08T00:36:43;20.20;51.50
16744;DHT22;71724;-33.900;151.182;2023-10-08T00:39:12;20.30;50.90
16744;DHT22;71724;-33.900;151.182;2023-10-08T00:41:46;20.60;49.80
16744;DHT22;71724;-33.900;151.182;2023-10-08T00:44:14;20.80;49.10
16744;DHT22;71724;-33.900;151.182;2023-10-08T00:46:49;20.90;48.60
16744;DHT22;71724;-33.900;151.182;2023-10-08T00:49:21;21.20;49.10
16744;DHT22;71724;-33.900;151.182;2023-10-08T00:51:55;21.30;47.00
16744;DHT22;71724;-33.900;151.182;2023-10-08T00:54:32;21.60;46.20
16744;DHT22;71724;-33.900;151.182;2023-10-08T00:57:01;21.90;46.50
16744;DHT22;71724;-33.900;151.182;2023-10-08T00:59:32;22.30;46.20
16744;DHT22;71724;-33.900;151.182;2023-10-08T01:02:12;22.40;45.60
16744;DHT22;71724;-33.900;151.182;2023-10-08T01:04:46;22.80;44.40
16744;DHT22;71724;-33.900;151.182;2023-10-08T01:07:16;22.90;44.40
16744;DHT22;71724;-33.900;151.182;2023-10-08T01:09:45;22.90;43.10
16744;DHT22;71724;-33.900;151.182;2023-10-08T01:12:25;22.80;43.50
16744;DHT22;71724;-33.900;151.182;2023-10-08T01:15:02;22.80;44.00
16744;DHT22;71724;-33.900;151.182;2023-10-08T01:17:48;22.70;44.90
16744;DHT22;71724;-33.900;151.182;2023-10-08T01:20:25;22.50;44.20
16744;DHT22;71724;-33.900;151.182;2023-10-08T01:23:10;22.30;44.60
16744;DHT22;71724;-33.900;151.182;2023-10-08T01:25:48;22.10;44.60
16744;DHT22;71724;-33.900;151.182;2023-10-08T01:28:24;21.80;45.00
16744;DHT22;71724;-33.900;151.182;2023-10-08T01:30:56;21.70;46.40
16744;DHT22;71724;-33.900;151.182;2023-10-08T01:33:28;21.50;46.70
16744;DHT22;71724;-33.900;151.182;2023-10-08T01:36:05;21.30;47.60
16744;DHT22;71724;-33.900;151.182;2023-10-08T01:38:34;21.20;48.30
16744;DHT22;71724;-33.900;151.182;2023-10-08T01:41:02;20.90;48.80
16744;DHT22;71724;-33.900;151.182;2023-10-08T01:43:56;20.70;49.30
16744;DHT22;71724;-33.900;151.182;2023-10-08T01:46:25;20.80;49.90
16744;DHT22;71724;-33.900;151.182;2023-10-08T01:48:54;20.90;49.80
16744;DHT22;71724;-33.900;151.182;2023-10-08T01:51:31;21.10;49.00
16744;DHT22;71724;-33.900;151.182;2023-10-08T01:54:05;21.20;49.40
16744;DHT22;71724;-33.900;151.182;2023-10-08T01:56:41;21.30;49.10
16744;DHT22;71724;-33.900;151.182;2023-10-08T01:59:13;21.30;48.80
16744;DHT22;71724;-33.900;151.182;2023-10-08T02:01:43;21.30;48.70
16744;DHT22;71724;-33.900;151.182;2023-10-08T02:04:11;21.30;48.90
16744;DHT22;71724;-33.900;151.182;2023-10-08T02:06:39;21.30;50.00
16744;DHT22;71724;-33.900;151.182;2023-10-08T02:09:07;21.20;50.30
16744;DHT22;71724;-33.900;151.182;2023-10-08T02:11:48;21.20;50.20
16744;DHT22;71724;-33.900;151.182;2023-10-08T02:14:20;21.10;50.30
16744;DHT22;71724;-33.900;151.182;2023-10-08T02:16:50;21.10;50.50
16744;DHT22;71724;-33.900;151.182;2023-10-08T02:19:23;21.00;50.70
16744;DHT22;71724;-33.900;151.182;2023-10-08T02:21:57;20.90;50.80
16744;DHT22;71724;-33.900;151.182;2023-10-08T02:24:27;21.00;50.90
16744;DHT22;71724;-33.900;151.182;2023-10-08T02:26:58;20.90;51.00
16744;DHT22;71724;-33.900;151.182;2023-10-08T02:29:28;20.90;51.20
16744;DHT22;71724;-33.900;151.182;2023-10-08T02:31:57;20.90;51.60
16744;DHT22;71724;-33.900;151.182;2023-10-08T02:34:25;21.10;51.70
16744;DHT22;71724;-33.900;151.182;2023-10-08T02:36:53;21.30;51.40
16744;DHT22;71724;-33.900;151.182;2023-10-08T02:39:23;21.50;51.20
16744;DHT22;71724;-33.900;151.182;2023-10-08T02:41:54;21.60;49.90
16744;DHT22;71724;-33.900;151.182;2023-10-08T02:44:25;21.70;49.80
16744;DHT22;71724;-33.900;151.182;2023-10-08T02:46:53;21.80;49.80
16744;DHT22;71724;-33.900;151.182;2023-10-08T02:49:22;21.90;49.30
16744;DHT22;71724;-33.900;151.182;2023-10-08T02:51:52;21.90;49.70
16744;DHT22;71724;-33.900;151.182;2023-10-08T02:54:22;22.00;49.30
16744;DHT22;71724;-33.900;151.182;2023-10-08T02:56:58;22.10;49.50
16744;DHT22;71724;-33.900;151.182;2023-10-08T02:59:30;22.30;49.00
16744;DHT22;71724;-33.900;151.182;2023-10-08T03:02:09;22.40;48.20
16744;DHT22;71724;-33.900;151.182;2023-10-08T03:04:45;22.50;47.80
16744;DHT22;71724;-33.900;151.182;2023-10-08T03:07:14;22.60;47.30
16744;DHT22;71724;-33.900;151.182;2023-10-08T03:09:49;22.60;47.10
16744;DHT22;71724;-33.900;151.182;2023-10-08T03:12:17;22.70;47.30
16744;DHT22;71724;-33.900;151.182;2023-10-08T03:14:45;22.80;46.20
16744;DHT22;71724;-33.900;151.182;2023-10-08T03:17:29;22.80;46.50
16744;DHT22;71724;-33.900;151.182;2023-10-08T03:19:57;23.10;46.00
16744;DHT22;71724;-33.900;151.182;2023-10-08T03:22:44;23.10;45.10
16744;DHT22;71724;-33.900;151.182;2023-10-08T03:25:13;23.10;45.70
16744;DHT22;71724;-33.900;151.182;2023-10-08T03:27:46;23.20;45.50
16744;DHT22;71724;-33.900;151.182;2023-10-08T03:30:15;23.20;45.20
16744;DHT22;71724;-33.900;151.182;2023-10-08T03:32:45;23.20;44.70
16744;DHT22;71724;-33.900;151.182;2023-10-08T03:35:17;23.30;44.80
16744;DHT22;71724;-33.900;151.182;2023-10-08T03:37:55;23.40;44.30
16744;DHT22;71724;-33.900;151.182;2023-10-08T03:40:42;23.40;44.10
16744;DHT22;71724;-33.900;151.182;2023-10-08T03:43:10;23.30;44.50
16744;DHT22;71724;-33.900;151.182;2023-10-08T03:45:47;23.30;44.80
16744;DHT22;71724;-33.900;151.182;2023-10-08T03:48:21;23.30;44.70
16744;DHT22;71724;-33.900;151.182;2023-10-08T03:50:49;23.30;44.20
16744;DHT22;71724;-33.900;151.182;2023-10-08T03:53:23;23.20;44.30
16744;DHT22;71724;-33.900;151.182;2023-10-08T03:55:51;23.30;44.20
16744;DHT22;71724;-33.900;151.182;2023-10-08T03:58:20;23.30;44.70
16744;DHT22;71724;-33.900;151.182;2023-10-08T04:01:11;23.40;44.40
16744;DHT22;71724;-33.900;151.182;2023-10-08T04:03:45;23.60;44.60
16744;DHT22;71724;-33.900;151.182;2023-10-08T04:06:21;23.60;43.90
16744;DHT22;71724;-33.900;151.182;2023-10-08T04:08:55;23.60;44.10
16744;DHT22;71724;-33.900;151.182;2023-10-08T04:11:43;23.60;44.70
16744;DHT22;71724;-33.900;151.182;2023-10-08T04:14:31;23.60;44.90
16744;DHT22;71724;-33.900;151.182;2023-10-08T04:16:58;23.60;45.40
16744;DHT22;71724;-33.900;151.182;2023-10-08T04:19:25;23.70;45.40
16744;DHT22;71724;-33.900;151.182;2023-10-08T04:21:57;23.80;45.40
16744;DHT22;71724;-33.900;151.182;2023-10-08T04:24:26;23.80;45.70
16744;DHT22;71724;-33.900;151.182;2023-10-08T04:27:02;23.80;46.20
16744;DHT22;71724;-33.900;151.182;2023-10-08T04:29:36;23.80;46.10
16744;DHT22;71724;-33.900;151.182;2023-10-08T04:32:05;23.80;46.30
16744;DHT22;71724;-33.900;151.182;2023-10-08T04:34:38;23.90;46.30
16744;DHT22;71724;-33.900;151.182;2023-10-08T04:37:11;24.00;46.30
16744;DHT22;71724;-33.900;151.182;2023-10-08T04:39:40;24.10;45.90
16744;DHT22;71724;-33.900;151.182;2023-10-08T04:42:13;24.00;46.00
16744;DHT22;71724;-33.900;151.182;2023-10-08T04:44:52;24.00;46.00
16744;DHT22;71724;-33.900;151.182;2023-10-08T04:47:19;24.00;45.80
16744;DHT22;71724;-33.900;151.182;2023-10-08T04:49:59;23.90;45.70
16744;DHT22;71724;-33.900;151.182;2023-10-08T04:52:27;23.90;45.70
16744;DHT22;71724;-33.900;151.182;2023-10-08T04:54:55;23.80;45.50
16744;DHT22;71724;-33.900;151.182;2023-10-08T04:57:23;23.70;45.90
16744;DHT22;71724;-33.900;151.182;2023-10-08T04:59:52;23.60;46.40
16744;DHT22;71724;-33.900;151.182;2023-10-08T05:02:24;23.60;46.50
16744;DHT22;71724;-33.900;151.182;2023-10-08T05:05:11;23.50;46.60
16744;DHT22;71724;-33.900;151.182;2023-10-08T05:07:38;23.50;46.70
16744;DHT22;71724;-33.900;151.182;2023-10-08T05:10:14;23.60;46.50
16744;DHT22;71724;-33.900;151.182;2023-10-08T05:12:52;23.60;46.60
16744;DHT22;71724;-33.900;151.182;2023-10-08T05:15:32;23.70;46.50
16744;DHT22;71724;-33.900;151.182;2023-10-08T05:18:17;23.70;46.30
16744;DHT22;71724;-33.900;151.182;2023-10-08T05:20:45;23.80;46.40
16744;DHT22;71724;-33.900;151.182;2023-10-08T05:23:16;23.80;45.80
16744;DHT22;71724;-33.900;151.182;2023-10-08T05:25:57;23.60;45.40
16744;DHT22;71724;-33.900;151.182;2023-10-08T05:28:36;23.70;45.70
16744;DHT22;71724;-33.900;151.182;2023-10-08T05:31:22;23.70;45.80
16744;DHT22;71724;-33.900;151.182;2023-10-08T05:34:14;23.60;45.50
16744;DHT22;71724;-33.900;151.182;2023-10-08T05:36:44;23.70;45.90
16744;DHT22;71724;-33.900;151.182;2023-10-08T05:39:27;23.70;45.80
16744;DHT22;71724;-33.900;151.182;2023-10-08T05:42:17;23.70;45.90
16744;DHT22;71724;-33.900;151.182;2023-10-08T05:45:01;23.70;45.50
16744;DHT22;71724;-33.900;151.182;2023-10-08T05:47:37;23.70;45.70
16744;DHT22;71724;-33.900;151.182;2023-10-08T05:50:08;23.60;45.70
16744;DHT22;71724;-33.900;151.182;2023-10-08T05:52:46;23.60;45.70
16744;DHT22;71724;-33.900;151.182;2023-10-08T05:55:31;23.50;45.80
16744;DHT22;71724;-33.900;151.182;2023-10-08T05:58:09;23.40;45.60
16744;DHT22;71724;-33.900;151.182;2023-10-08T06:00:47;23.30;45.70
16744;DHT22;71724;-33.900;151.182;2023-10-08T06:03:20;23.20;46.00
16744;DHT22;71724;-33.900;151.182;2023-10-08T06:06:06;23.30;46.20
16744;DHT22;71724;-33.900;151.182;2023-10-08T06:08:43;23.20;46.30
16744;DHT22;71724;-33.900;151.182;2023-10-08T06:11:39;23.20;46.60
16744;DHT22;71724;-33.900;151.182;2023-10-08T06:14:33;23.20;46.50
16744;DHT22;71724;-33.900;151.182;2023-10-08T06:17:23;23.20;46.40
16744;DHT22;71724;-33.900;151.182;2023-10-08T06:20:01;23.20;45.80
16744;DHT22;71724;-33.900;151.182;2023-10-08T06:22:35;23.20;46.40
16744;DHT22;71724;-33.900;151.182;2023-10-08T06:25:03;23.30;46.00
16744;DHT22;71724;-33.900;151.182;2023-10-08T06:27:44;23.30;45.50
16744;DHT22;71724;-33.900;151.182;2023-10-08T06:30:13;23.30;44.90
16744;DHT22;71724;-33.900;151.182;2023-10-08T06:32:46;23.30;44.40
16744;DHT22;71724;-33.900;151.182;2023-10-08T06:35:14;23.30;43.60
16744;DHT22;71724;-33.900;151.182;2023-10-08T06:37:45;23.30;44.90
16744;DHT22;71724;-33.900;151.182;2023-10-08T06:40:17;23.20;44.00
16744;DHT22;71724;-33.900;151.182;2023-10-08T06:43:02;23.20;44.30
16744;DHT22;71724;-33.900;151.182;2023-10-08T06:45:40;23.10;44.10
16744;DHT22;71724;-33.900;151.182;2023-10-08T06:48:10;23.10;44.60
16744;DHT22;71724;-33.900;151.182;2023-10-08T06:50:48;23.10;44.50
16744;DHT22;71724;-33.900;151.182;2023-10-08T06:53:17;23.10;44.40
16744;DHT22;71724;-33.900;151.182;2023-10-08T06:55:48;22.90;45.10
16744;DHT22;71724;-33.900;151.182;2023-10-08T06:58:24;22.80;45.30
16744;DHT22;71724;-33.900;151.182;2023-10-08T07:00:53;22.80;46.00
16744;DHT22;71724;-33.900;151.182;2023-10-08T07:03:23;22.50;46.60
16744;DHT22;71724;-33.900;151.182;2023-10-08T07:05:52;22.40;47.40
16744;DHT22;71724;-33.900;151.182;2023-10-08T07:08:32;22.20;48.40
16744;DHT22;71724;-33.900;151.182;2023-10-08T07:11:01;22.10;48.90
16744;DHT22;71724;-33.900;151.182;2023-10-08T07:13:34;21.90;49.30
16744;DHT22;71724;-33.900;151.182;2023-10-08T07:16:03;21.80;49.80
16744;DHT22;71724;-33.900;151.182;2023-10-08T07:18:35;21.70;50.50
16744;DHT22;71724;-33.900;151.182;2023-10-08T07:21:02;21.50;50.70
16744;DHT22;71724;-33.900;151.182;2023-10-08T07:23:37;21.40;50.90
16744;DHT22;71724;-33.900;151.182;2023-10-08T07:26:29;21.20;51.40
16744;DHT22;71724;-33.900;151.182;2023-10-08T07:29:21;21.20;52.00
16744;DHT22;71724;-33.900;151.182;2023-10-08T07:31:49;21.00;52.70
16744;DHT22;71724;-33.900;151.182;2023-10-08T07:34:19;20.90;52.90
16744;DHT22;71724;-33.900;151.182;2023-10-08T07:36:50;20.80;53.30
16744;DHT22;71724;-33.900;151.182;2023-10-08T07:39:19;20.70;53.40
16744;DHT22;71724;-33.900;151.182;2023-10-08T07:41:50;20.60;53.40
16744;DHT22;71724;-33.900;151.182;2023-10-08T07:44:18;20.50;53.30
16744;DHT22;71724;-33.900;151.182;2023-10-08T07:46:52;20.40;53.50
16744;DHT22;71724;-33.900;151.182;2023-10-08T07:49:23;20.30;53.10
16744;DHT22;71724;-33.900;151.182;2023-10-08T07:51:55;20.20;53.20
16744;DHT22;71724;-33.900;151.182;2023-10-08T07:54:26;20.10;53.20
16744;DHT22;71724;-33.900;151.182;2023-10-08T07:57:04;20.00;53.10
16744;DHT22;71724;-33.900;151.182;2023-10-08T07:59:44;19.90;52.90
16744;DHT22;71724;-33.900;151.182;2023-10-08T08:02:16;19.90;52.70
16744;DHT22;71724;-33.900;151.182;2023-10-08T08:04:44;19.90;52.70
16744;DHT22;71724;-33.900;151.182;2023-10-08T08:07:17;19.80;52.70
16744;DHT22;71724;-33.900;151.182;2023-10-08T08:09:49;19.70;52.80
16744;DHT22;71724;-33.900;151.182;2023-10-08T08:12:24;19.70;53.00
16744;DHT22;71724;-33.900;151.182;2023-10-08T08:14:52;19.70;52.80
16744;DHT22;71724;-33.900;151.182;2023-10-08T08:17:21;19.60;52.50
16744;DHT22;71724;-33.900;151.182;2023-10-08T08:19:51;19.60;52.90
16744;DHT22;71724;-33.900;151.182;2023-10-08T08:22:22;19.50;53.00
16744;DHT22;71724;-33.900;151.182;2023-10-08T08:24:53;19.40;53.10
16744;DHT22;71724;-33.900;151.182;2023-10-08T08:27:47;19.30;53.50
16744;DHT22;71724;-33.900;151.182;2023-10-08T08:30:15;19.30;53.20
16744;DHT22;71724;-33.900;151.182;2023-10-08T08:32:46;19.20;53.50
16744;DHT22;71724;-33.900;151.182;2023-10-08T08:35:16;19.20;53.80
16744;DHT22;71724;-33.900;151.182;2023-10-08T08:37:45;19.20;53.70
16744;DHT22;71724;-33.900;151.182;2023-10-08T08:40:19;19.20;53.70
16744;DHT22;71724;-33.900;151.182;2023-10-08T08:42:47;19.10;54.10
16744;DHT22;71724;-33.900;151.182;2023-10-08T08:45:20;19.00;54.40
16744;DHT22;71724;-33.900;151.182;2023-10-08T08:47:48;19.00;54.60
16744;DHT22;71724;-33.900;151.182;2023-10-08T08:50:16;18.90;54.70
16744;DHT22;71724;-33.900;151.182;2023-10-08T08:52:44;18.80;55.00
16744;DHT22;71724;-33.900;151.182;2023-10-08T08:55:12;18.80;55.10
16744;DHT22;71724;-33.900;151.182;2023-10-08T08:57:48;18.80;55.30
16744;DHT22;71724;-33.900;151.182;2023-10-08T09:00:18;18.80;55.30
16744;DHT22;71724;-33.900;151.182;2023-10-08T09:02:46;18.80;55.40
16744;DHT22;71724;-33.900;151.182;2023-10-08T09:05:14;18.80;55.40
16744;DHT22;71724;-33.900;151.182;2023-10-08T09:07:56;18.80;55.60
16744;DHT22;71724;-33.900;151.182;2023-10-08T09:10:26;18.70;55.70
16744;DHT22;71724;-33.900;151.182;2023-10-08T09:12:58;18.70;56.00
16744;DHT22;71724;-33.900;151.182;2023-10-08T09:15:26;18.70;56.20
16744;DHT22;71724;-33.900;151.182;2023-10-08T09:17:57;18.60;56.30
16744;DHT22;71724;-33.900;151.182;2023-10-08T09:20:31;18.60;56.20
16744;DHT22;71724;-33.900;151.182;2023-10-08T09:23:13;18.60;56.20
16744;DHT22;71724;-33.900;151.182;2023-10-08T09:25:42;18.60;56.40
16744;DHT22;71724;-33.900;151.182;2023-10-08T09:28:11;18.50;56.30
16744;DHT22;71724;-33.900;151.182;2023-10-08T09:30:42;18.50;56.50
16744;DHT22;71724;-33.900;151.182;2023-10-08T09:33:12;18.50;56.30
16744;DHT22;71724;-33.900;151.182;2023-10-08T09:35:40;18.40;56.70
16744;DHT22;71724;-33.900;151.182;2023-10-08T09:38:10;18.40;56.60
16744;DHT22;71724;-33.900;151.182;2023-10-08T09:40:41;18.40;56.50
16744;DHT22;71724;-33.900;151.182;2023-10-08T09:43:14;18.40;56.60
16744;DHT22;71724;-33.900;151.182;2023-10-08T09:45:47;18.30;56.80
16744;DHT22;71724;-33.900;151.182;2023-10-08T09:48:17;18.30;57.20
16744;DHT22;71724;-33.900;151.182;2023-10-08T09:50:48;18.30;57.20
16744;DHT22;71724;-33.900;151.182;2023-10-08T09:53:22;18.30;57.20
16744;DHT22;71724;-33.900;151.182;2023-10-08T09:55:54;18.30;57.20
16744;DHT22;71724;-33.900;151.182;2023-10-08T09:58:27;18.30;56.80
16744;DHT22;71724;-33.900;151.182;2023-10-08T10:00:56;18.30;57.00
16744;DHT22;71724;-33.900;151.182;2023-10-08T10:03:25;18.20;56.90
16744;DHT22;71724;-33.900;151.182;2023-10-08T10:05:53;18.20;56.80
16744;DHT22;71724;-33.900;151.182;2023-10-08T10:08:25;18.20;57.00
16744;DHT22;71724;-33.900;151.182;2023-10-08T10:11:01;18.20;57.10
16744;DHT22;71724;-33.900;151.182;2023-10-08T10:13:51;18.20;57.60
16744;DHT22;71724;-33.900;151.182;2023-10-08T10:16:21;18.20;57.70
16744;DHT22;71724;-33.900;151.182;2023-10-08T10:18:51;18.20;57.50
16744;DHT22;71724;-33.900;151.182;2023-10-08T10:21:31;18.20;57.40
16744;DHT22;71724;-33.900;151.182;2023-10-08T10:24:00;18.20;57.10
16744;DHT22;71724;-33.900;151.182;2023-10-08T10:26:35;18.20;57.00
16744;DHT22;71724;-33.900;151.182;2023-10-08T10:31:53;18.20;57.30
16744;DHT22;71724;-33.900;151.182;2023-10-08T10:34:25;18.10;57.60
16744;DHT22;71724;-33.900;151.182;2023-10-08T10:36:58;18.10;57.70
16744;DHT22;71724;-33.900;151.182;2023-10-08T10:39:29;18.10;57.70
16744;DHT22;71724;-33.900;151.182;2023-10-08T10:42:00;18.10;57.70
16744;DHT22;71724;-33.900;151.182;2023-10-08T10:44:29;18.10;57.70
16744;DHT22;71724;-33.900;151.182;2023-10-08T10:47:00;18.00;57.90
16744;DHT22;71724;-33.900;151.182;2023-10-08T10:49:43;18.00;57.80
16744;DHT22;71724;-33.900;151.182;2023-10-08T10:52:25;18.00;57.40
16744;DHT22;71724;-33.900;151.182;2023-10-08T10:55:06;18.00;57.40
16744;DHT22;71724;-33.900;151.182;2023-10-08T10:57:55;18.00;57.40
16744;DHT22;71724;-33.900;151.182;2023-10-08T11:00:24;17.90;57.60
16744;DHT22;71724;-33.900;151.182;2023-10-08T11:03:02;17.90;58.00
16744;DHT22;71724;-33.900;151.182;2023-10-08T11:05:34;17.90;58.20
16744;DHT22;71724;-33.900;151.182;2023-10-08T11:08:07;17.80;58.10
16744;DHT22;71724;-33.900;151.182;2023-10-08T11:10:37;17.80;58.60
16744;DHT22;71724;-33.900;151.182;2023-10-08T11:13:06;17.90;58.40
16744;DHT22;71724;-33.900;151.182;2023-10-08T11:15:42;17.80;58.30
16744;DHT22;71724;-33.900;151.182;2023-10-08T11:18:16;17.80;58.30
16744;DHT22;71724;-33.900;151.182;2023-10-08T11:20:45;17.80;58.60
16744;DHT22;71724;-33.900;151.182;2023-10-08T11:23:35;17.80;59.10
16744;DHT22;71724;-33.900;151.182;2023-10-08T11:26:06;17.70;59.00
16744;DHT22;71724;-33.900;151.182;2023-10-08T11:28:36;17.80;59.30
16744;DHT22;71724;-33.900;151.182;2023-10-08T11:31:25;17.80;59.00
16744;DHT22;71724;-33.900;151.182;2023-10-08T11:34:00;17.70;59.20
16744;DHT22;71724;-33.900;151.182;2023-10-08T11:36:28;17.70;59.00
16744;DHT22;71724;-33.900;151.182;2023-10-08T11:38:57;17.70;59.10
16744;DHT22;71724;-33.900;151.182;2023-10-08T11:41:28;17.60;59.50
16744;DHT22;71724;-33.900;151.182;2023-10-08T11:43:57;17.50;60.20
16744;DHT22;71724;-33.900;151.182;2023-10-08T11:46:29;17.50;59.90
16744;DHT22;71724;-33.900;151.182;2023-10-08T11:49:10;17.50;60.10
16744;DHT22;71724;-33.900;151.182;2023-10-08T11:51:46;17.50;60.10
16744;DHT22;71724;-33.900;151.182;2023-10-08T11:54:13;17.40;60.20
16744;DHT22;71724;-33.900;151.182;2023-10-08T11:56:41;17.30;60.40
16744;DHT22;71724;-33.900;151.182;2023-10-08T11:59:09;17.20;60.90
16744;DHT22;71724;-33.900;151.182;2023-10-08T12:01:37;17.20;61.70
16744;DHT22;71724;-33.900;151.182;2023-10-08T12:04:09;17.10;61.50
16744;DHT22;71724;-33.900;151.182;2023-10-08T12:06:42;17.20;61.60
16744;DHT22;71724;-33.900;151.182;2023-10-08T12:09:14;17.10;61.30
16744;DHT22;71724;-33.900;151.182;2023-10-08T12:11:42;17.00;61.50
16744;DHT22;71724;-33.900;151.182;2023-10-08T12:14:11;17.00;61.70
16744;DHT22;71724;-33.900;151.182;2023-10-08T12:16:39;17.00;61.60
16744;DHT22;71724;-33.900;151.182;2023-10-08T12:19:08;17.00;61.60
16744;DHT22;71724;-33.900;151.182;2023-10-08T12:21:45;16.90;62.20
16744;DHT22;71724;-33.900;151.182;2023-10-08T12:24:15;16.90;62.50
16744;DHT22;71724;-33.900;151.182;2023-10-08T12:26:43;16.90;62.10
16744;DHT22;71724;-33.900;151.182;2023-10-08T12:29:16;16.90;62.00
16744;DHT22;71724;-33.900;151.182;2023-10-08T12:31:48;16.90;62.30
16744;DHT22;71724;-33.900;151.182;2023-10-08T12:34:19;16.80;62.40
16744;DHT22;71724;-33.900;151.182;2023-10-08T12:36:49;16.80;62.40
16744;DHT22;71724;-33.900;151.182;2023-10-08T12:39:17;16.80;62.00
16744;DHT22;71724;-33.900;151.182;2023-10-08T12:41:44;16.80;62.40
16744;DHT22;71724;-33.900;151.182;2023-10-08T12:44:12;16.80;62.30
16744;DHT22;71724;-33.900;151.182;2023-10-08T12:46:42;16.80;62.40
16744;DHT22;71724;-33.900;151.182;2023-10-08T12:49:10;16.70;62.80
16744;DHT22;71724;-33.900;151.182;2023-10-08T12:51:38;16.70;63.10
16744;DHT22;71724;-33.900;151.182;2023-10-08T12:54:08;16.60;63.00
16744;DHT22;71724;-33.900;151.182;2023-10-08T12:56:37;16.50;63.00
16744;DHT22;71724;-33.900;151.182;2023-10-08T12:59:11;16.50;63.40
16744;DHT22;71724;-33.900;151.182;2023-10-08T13:01:46;16.40;64.20
16744;DHT22;71724;-33.900;151.182;2023-10-08T13:04:21;16.30;64.20
16744;DHT22;71724;-33.900;151.182;2023-10-08T13:07:01;16.30;64.10
16744;DHT22;71724;-33.900;151.182;2023-10-08T13:09:30;16.30;64.40
16744;DHT22;71724;-33.900;151.182;2023-10-08T13:12:05;16.30;64.30
16744;DHT22;71724;-33.900;151.182;2023-10-08T13:14:32;16.20;64.30
16744;DHT22;71724;-33.900;151.182;2023-10-08T13:17:01;16.20;64.90
16744;DHT22;71724;-33.900;151.182;2023-10-08T13:19:29;16.10;64.90
16744;DHT22;71724;-33.900;151.182;2023-10-08T13:22:00;16.20;65.10
16744;DHT22;71724;-33.900;151.182;2023-10-08T13:24:27;16.20;64.90
16744;DHT22;71724;-33.900;151.182;2023-10-08T13:26:55;16.10;65.20
16744;DHT22;71724;-33.900;151.182;2023-10-08T13:29:24;16.20;65.70
16744;DHT22;71724;-33.900;151.182;2023-10-08T13:31:59;16.10;65.10
16744;DHT22;71724;-33.900;151.182;2023-10-08T13:34:26;16.00;65.20
16744;DHT22;71724;-33.900;151.182;2023-10-08T13:36:54;15.90;65.60
16744;DHT22;71724;-33.900;151.182;2023-10-08T13:39:22;15.90;66.10
16744;DHT22;71724;-33.900;151.182;2023-10-08T13:41:50;15.80;66.30
16744;DHT22;71724;-33.900;151.182;2023-10-08T13:44:19;15.80;66.30
16744;DHT22;71724;-33.900;151.182;2023-10-08T13:46:56;15.80;66.70
16744;DHT22;71724;-33.900;151.182;2023-10-08T13:49:25;15.90;66.90
16744;DHT22;71724;-33.900;151.182;2023-10-08T13:51:58;15.80;67.10
16744;DHT22;71724;-33.900;151.182;2023-10-08T13:54:26;15.80;67.20
16744;DHT22;71724;-33.900;151.182;2023-10-08T13:56:57;15.80;67.40
16744;DHT22;71724;-33.900;151.182;2023-10-08T13:59:24;15.80;67.30
16744;DHT22;71724;-33.900;151.182;2023-10-08T14:01:52;15.70;67.50
16744;DHT22;71724;-33.900;151.182;2023-10-08T14:04:22;15.70;67.80
16744;DHT22;71724;-33.900;151.182;2023-10-08T14:07:01;15.70;68.20
16744;DHT22;71724;-33.900;151.182;2023-10-08T14:09:30;15.70;68.10
16744;DHT22;71724;-33.900;151.182;2023-10-08T14:11:58;15.70;68.10
16744;DHT22;71724;-33.900;151.182;2023-10-08T14:14:26;15.70;68.50
16744;DHT22;71724;-33.900;151.182;2023-10-08T14:16:57;15.70;68.80
16744;DHT22;71724;-33.900;151.182;2023-10-08T14:19:30;15.70;68.80
16744;DHT22;71724;-33.900;151.182;2023-10-08T14:22:10;15.70;69.00
16744;DHT22;71724;-33.900;151.182;2023-10-08T14:24:40;15.70;69.00
16744;DHT22;71724;-33.900;151.182;2023-10-08T14:27:08;15.70;69.10
16744;DHT22;71724;-33.900;151.182;2023-10-08T14:29:42;15.70;69.20
16744;DHT22;71724;-33.900;151.182;2023-10-08T14:32:13;15.70;69.20
16744;DHT22;71724;-33.900;151.182;2023-10-08T14:34:41;15.70;68.90
16744;DHT22;71724;-33.900;151.182;2023-10-08T14:37:22;15.70;69.00
16744;DHT22;71724;-33.900;151.182;2023-10-08T14:40:07;15.60;69.20
16744;DHT22;71724;-33.900;151.182;2023-10-08T14:42:53;15.70;69.30
16744;DHT22;71724;-33.900;151.182;2023-10-08T14:45:27;15.60;69.30
16744;DHT22;71724;-33.900;151.182;2023-10-08T14:47:58;15.50;69.50
16744;DHT22;71724;-33.900;151.182;2023-10-08T14:50:28;15.60;69.70
16744;DHT22;71724;-33.900;151.182;2023-10-08T14:52:58;15.60;69.90
16744;DHT22;71724;-33.900;151.182;2023-10-08T14:55:33;15.60;69.80
16744;DHT22;71724;-33.900;151.182;2023-10-08T14:58:02;15.70;69.60
16744;DHT22;71724;-33.900;151.182;2023-10-08T15:00:40;15.70;69.40
16744;DHT22;71724;-33.900;151.182;2023-10-08T15:03:08;15.70;69.30
16744;DHT22;71724;-33.900;151.182;2023-10-08T15:05:38;15.60;69.50
16744;DHT22;71724;-33.900;151.182;2023-10-08T15:08:07;15.60;69.70
16744;DHT22;71724;-33.900;151.182;2023-10-08T15:10:36;15.60;69.60
16744;DHT22;71724;-33.900;151.182;2023-10-08T15:13:04;15.50;69.80
16744;DHT22;71724;-33.900;151.182;2023-10-08T15:15:33;15.50;70.00
16744;DHT22;71724;-33.900;151.182;2023-10-08T15:18:06;15.40;70.00
16744;DHT22;71724;-33.900;151.182;2023-10-08T15:20:34;15.40;70.10
16744;DHT22;71724;-33.900;151.182;2023-10-08T15:23:03;15.40;70.30
16744;DHT22;71724;-33.900;151.182;2023-10-08T15:25:31;15.30;70.40
16744;DHT22;71724;-33.900;151.182;2023-10-08T15:27:58;15.50;70.20